sensor_id;sensor_type;location;lat;lon;timestamp;P1;durP1;ratioP1;P2;durP2;ratioP2
54460;SDS011;40371;49.414;11.010;2022-12-18T00:01:22;41.53;;;27.03;;
54460;SDS011;40371;49.414;11.010;2022-12-18T00:03:50;50.40;;;29.27;;
54460;SDS011;40371;49.414;11.010;2022-12-18T00:06:17;44.27;;;27.53;;
54460;SDS011;40371;49.414;11.010;2022-12-18T00:08:43;47.67;;;27.60;;
54460;SDS011;40371;49.414;11.010;2022-12-18T00:11:17;39.17;;;25.43;;
54460;SDS011;40371;49.414;11.010;2022-12-18T00:13:44;40.93;;;26.40;;
54460;SDS011;40371;49.414;11.010;2022-12-18T00:16:11;43.70;;;27.50;;
54460;SDS011;40371;49.414;11.010;2022-12-18T00:18:38;44.20;;;26.73;;
54460;SDS011;40371;49.414;11.010;2022-12-18T00:21:05;42.23;;;26.67;;
54460;SDS011;40371;49.414;11.010;2022-12-18T00:23:32;46.43;;;28.73;;
54460;SDS011;40371;49.414;11.010;2022-12-18T00:26:00;45.43;;;27.87;;
54460;SDS011;40371;49.414;11.010;2022-12-18T00:28:26;46.40;;;29.83;;
54460;SDS011;40371;49.414;11.010;2022-12-18T00:30:59;47.10;;;27.73;;
54460;SDS011;40371;49.414;11.010;2022-12-18T00:33:29;49.10;;;28.47;;
54460;SDS011;40371;49.414;11.010;2022-12-18T00:36:00;47.27;;;29.73;;
54460;SDS011;40371;49.414;11.010;2022-12-18T00:38:31;47.03;;;29.10;;
54460;SDS011;40371;49.414;11.010;2022-12-18T00:40:56;47.60;;;30.27;;
54460;SDS011;40371;49.414;11.010;2022-12-18T00:43:22;45.77;;;29.57;;
54460;SDS011;40371;49.414;11.010;2022-12-18T00:45:48;47.13;;;29.17;;
54460;SDS011;40371;49.414;11.010;2022-12-18T00:48:13;51.07;;;29.93;;
54460;SDS011;40371;49.414;11.010;2022-12-18T00:50:39;50.93;;;29.93;;
54460;SDS011;40371;49.414;11.010;2022-12-18T00:53:05;46.60;;;27.97;;
54460;SDS011;40371;49.414;11.010;2022-12-18T00:55:31;51.97;;;31.00;;
54460;SDS011;40371;49.414;11.010;2022-12-18T00:57:57;54.80;;;32.53;;
54460;SDS011;40371;49.414;11.010;2022-12-18T01:00:22;49.40;;;29.97;;
54460;SDS011;40371;49.414;11.010;2022-12-18T01:02:48;52.27;;;29.47;;
54460;SDS011;40371;49.414;11.010;2022-12-18T01:05:14;56.50;;;32.47;;
54460;SDS011;40371;49.414;11.010;2022-12-18T01:07:40;57.07;;;31.30;;
54460;SDS011;40371;49.414;11.010;2022-12-18T01:10:06;59.27;;;31.70;;
54460;SDS011;40371;49.414;11.010;2022-12-18T01:12:34;51.97;;;31.03;;
54460;SDS011;40371;49.414;11.010;2022-12-18T01:14:59;48.67;;;28.67;;
54460;SDS011;40371;49.414;11.010;2022-12-18T01:17:25;49.37;;;28.27;;
54460;SDS011;40371;49.414;11.010;2022-12-18T01:19:52;52.33;;;30.10;;
54460;SDS011;40371;49.414;11.010;2022-12-18T01:22:17;56.10;;;30.27;;
54460;SDS011;40371;49.414;11.010;2022-12-18T01:24:43;54.23;;;30.40;;
54460;SDS011;40371;49.414;11.010;2022-12-18T01:27:09;56.97;;;29.53;;
54460;SDS011;40371;49.414;11.010;2022-12-18T01:29:34;49.70;;;26.63;;
54460;SDS011;40371;49.414;11.010;2022-12-18T01:32:01;48.10;;;28.07;;
54460;SDS011;40371;49.414;11.010;2022-12-18T01:34:28;54.13;;;26.40;;
54460;SDS011;40371;49.414;11.010;2022-12-18T01:36:54;51.03;;;27.57;;
54460;SDS011;40371;49.414;11.010;2022-12-18T01:39:19;44.47;;;26.00;;
54460;SDS011;40371;49.414;11.010;2022-12-18T01:41:45;49.37;;;23.90;;
54460;SDS011;40371;49.414;11.010;2022-12-18T01:47:22;48.10;;;24.63;;
54460;SDS011;40371;49.414;11.010;2022-12-18T01:49:51;44.37;;;24.17;;
54460;SDS011;40371;49.414;11.010;2022-12-18T01:52:17;41.10;;;23.43;;
54460;SDS011;40371;49.414;11.010;2022-12-18T01:54:45;42.37;;;23.43;;
54460;SDS011;40371;49.414;11.010;2022-12-18T01:57:12;51.73;;;24.80;;
54460;SDS011;40371;49.414;11.010;2022-12-18T01:59:38;40.83;;;22.97;;
54460;SDS011;40371;49.414;11.010;2022-12-18T02:02:06;40.97;;;22.80;;
54460;SDS011;40371;49.414;11.010;2022-12-18T02:04:33;40.27;;;22.73;;
54460;SDS011;40371;49.414;11.010;2022-12-18T02:09:41;37.73;;;21.10;;
54460;SDS011;40371;49.414;11.010;2022-12-18T02:12:18;37.33;;;20.87;;
54460;SDS011;40371;49.414;11.010;2022-12-18T02:28:28;42.00;;;21.40;;
54460;SDS011;40371;49.414;11.010;2022-12-18T02:31:02;35.43;;;19.53;;
54460;SDS011;40371;49.414;11.010;2022-12-18T02:33:33;44.40;;;20.80;;
54460;SDS011;40371;49.414;11.010;2022-12-18T02:36:00;41.10;;;21.53;;
54460;SDS011;40371;49.414;11.010;2022-12-18T02:38:29;37.40;;;19.57;;
54460;SDS011;40371;49.414;11.010;2022-12-18T02:41:03;39.17;;;20.00;;
54460;SDS011;40371;49.414;11.010;2022-12-18T02:43:30;39.63;;;22.63;;
54460;SDS011;40371;49.414;11.010;2022-12-18T02:45:57;44.57;;;21.87;;
54460;SDS011;40371;49.414;11.010;2022-12-18T02:48:31;41.00;;;22.10;;
54460;SDS011;40371;49.414;11.010;2022-12-18T02:53:57;36.00;;;19.90;;
54460;SDS011;40371;49.414;11.010;2022-12-18T02:56:42;42.33;;;22.27;;
54460;SDS011;40371;49.414;11.010;2022-12-18T02:59:21;38.53;;;21.33;;
54460;SDS011;40371;49.414;11.010;2022-12-18T03:01:59;36.57;;;20.77;;
54460;SDS011;40371;49.414;11.010;2022-12-18T03:04:38;43.37;;;21.57;;
54460;SDS011;40371;49.414;11.010;2022-12-18T03:07:09;42.87;;;22.40;;
54460;SDS011;40371;49.414;11.010;2022-12-18T03:09:43;36.90;;;20.10;;
54460;SDS011;40371;49.414;11.010;2022-12-18T03:12:18;38.37;;;21.10;;
54460;SDS011;40371;49.414;11.010;2022-12-18T03:17:40;35.13;;;21.07;;
54460;SDS011;40371;49.414;11.010;2022-12-18T03:20:12;35.43;;;20.57;;
54460;SDS011;40371;49.414;11.010;2022-12-18T03:22:42;36.97;;;21.53;;
54460;SDS011;40371;49.414;11.010;2022-12-18T03:25:13;36.23;;;19.70;;
54460;SDS011;40371;49.414;11.010;2022-12-18T03:27:42;36.03;;;21.07;;
54460;SDS011;40371;49.414;11.010;2022-12-18T03:30:14;33.53;;;19.70;;
54460;SDS011;40371;49.414;11.010;2022-12-18T03:32:46;36.20;;;20.03;;
54460;SDS011;40371;49.414;11.010;2022-12-18T03:35:19;36.57;;;20.37;;
54460;SDS011;40371;49.414;11.010;2022-12-18T03:37:48;35.00;;;20.33;;
54460;SDS011;40371;49.414;11.010;2022-12-18T03:40:14;36.90;;;19.43;;
54460;SDS011;40371;49.414;11.010;2022-12-18T03:42:48;35.90;;;20.47;;
54460;SDS011;40371;49.414;11.010;2022-12-18T03:50:36;34.50;;;19.97;;
54460;SDS011;40371;49.414;11.010;2022-12-18T03:56:05;36.13;;;19.80;;
54460;SDS011;40371;49.414;11.010;2022-12-18T03:58:37;32.97;;;18.60;;
54460;SDS011;40371;49.414;11.010;2022-12-18T04:01:16;35.23;;;18.70;;
54460;SDS011;40371;49.414;11.010;2022-12-18T04:03:44;37.63;;;20.60;;
54460;SDS011;40371;49.414;11.010;2022-12-18T04:06:16;35.53;;;18.77;;
54460;SDS011;40371;49.414;11.010;2022-12-18T04:08:43;32.43;;;19.27;;
54460;SDS011;40371;49.414;11.010;2022-12-18T04:11:13;32.90;;;18.83;;
54460;SDS011;40371;49.414;11.010;2022-12-18T04:13:39;35.30;;;20.33;;
54460;SDS011;40371;49.414;11.010;2022-12-18T04:16:13;38.73;;;20.30;;
54460;SDS011;40371;49.414;11.010;2022-12-18T04:18:41;37.23;;;20.60;;
54460;SDS011;40371;49.414;11.010;2022-12-18T04:21:07;35.93;;;20.87;;
54460;SDS011;40371;49.414;11.010;2022-12-18T04:23:33;37.93;;;21.33;;
54460;SDS011;40371;49.414;11.010;2022-12-18T04:26:00;36.73;;;20.30;;
54460;SDS011;40371;49.414;11.010;2022-12-18T04:28:40;33.70;;;19.70;;
54460;SDS011;40371;49.414;11.010;2022-12-18T04:31:07;31.97;;;18.33;;
54460;SDS011;40371;49.414;11.010;2022-12-18T04:33:33;37.90;;;20.53;;
54460;SDS011;40371;49.414;11.010;2022-12-18T04:35:58;34.20;;;20.77;;
54460;SDS011;40371;49.414;11.010;2022-12-18T04:38:24;37.50;;;19.30;;
54460;SDS011;40371;49.414;11.010;2022-12-18T04:40:57;36.60;;;19.00;;
54460;SDS011;40371;49.414;11.010;2022-12-18T04:43:25;32.10;;;19.53;;
54460;SDS011;40371;49.414;11.010;2022-12-18T04:45:51;38.07;;;20.00;;
54460;SDS011;40371;49.414;11.010;2022-12-18T04:48:16;34.70;;;20.37;;
54460;SDS011;40371;49.414;11.010;2022-12-18T04:50:42;32.73;;;19.07;;
54460;SDS011;40371;49.414;11.010;2022-12-18T04:53:08;33.83;;;19.50;;
54460;SDS011;40371;49.414;11.010;2022-12-18T04:55:33;35.93;;;18.83;;
54460;SDS011;40371;49.414;11.010;2022-12-18T04:57:59;32.77;;;18.50;;
54460;SDS011;40371;49.414;11.010;2022-12-18T05:00:25;30.60;;;17.87;;
54460;SDS011;40371;49.414;11.010;2022-12-18T05:02:51;35.60;;;19.17;;
54460;SDS011;40371;49.414;11.010;2022-12-18T05:05:16;33.33;;;19.17;;
54460;SDS011;40371;49.414;11.010;2022-12-18T05:07:42;35.07;;;19.83;;
54460;SDS011;40371;49.414;11.010;2022-12-18T05:10:08;36.43;;;19.80;;
54460;SDS011;40371;49.414;11.010;2022-12-18T05:12:34;28.90;;;18.60;;
54460;SDS011;40371;49.414;11.010;2022-12-18T05:15:19;31.67;;;18.30;;
54460;SDS011;40371;49.414;11.010;2022-12-18T05:17:45;33.33;;;20.13;;
54460;SDS011;40371;49.414;11.010;2022-12-18T05:20:11;34.20;;;19.37;;
54460;SDS011;40371;49.414;11.010;2022-12-18T05:22:36;33.97;;;18.80;;
54460;SDS011;40371;49.414;11.010;2022-12-18T05:25:02;33.30;;;19.40;;
54460;SDS011;40371;49.414;11.010;2022-12-18T05:27:27;34.20;;;19.90;;
54460;SDS011;40371;49.414;11.010;2022-12-18T05:29:53;30.93;;;18.37;;
54460;SDS011;40371;49.414;11.010;2022-12-18T05:32:19;31.63;;;19.33;;
54460;SDS011;40371;49.414;11.010;2022-12-18T05:34:44;30.27;;;17.90;;
54460;SDS011;40371;49.414;11.010;2022-12-18T05:37:10;34.73;;;19.23;;
54460;SDS011;40371;49.414;11.010;2022-12-18T05:39:35;34.00;;;18.70;;
54460;SDS011;40371;49.414;11.010;2022-12-18T05:42:01;34.77;;;18.93;;
54460;SDS011;40371;49.414;11.010;2022-12-18T05:44:27;32.17;;;18.63;;
54460;SDS011;40371;49.414;11.010;2022-12-18T05:46:52;33.13;;;18.97;;
54460;SDS011;40371;49.414;11.010;2022-12-18T05:49:18;34.07;;;19.20;;
54460;SDS011;40371;49.414;11.010;2022-12-18T05:51:44;28.63;;;17.13;;
54460;SDS011;40371;49.414;11.010;2022-12-18T05:54:09;32.87;;;18.97;;
54460;SDS011;40371;49.414;11.010;2022-12-18T05:56:35;33.43;;;19.20;;
54460;SDS011;40371;49.414;11.010;2022-12-18T05:59:00;32.87;;;18.50;;
54460;SDS011;40371;49.414;11.010;2022-12-18T06:01:26;33.07;;;17.40;;
54460;SDS011;40371;49.414;11.010;2022-12-18T06:03:52;34.30;;;18.93;;
54460;SDS011;40371;49.414;11.010;2022-12-18T06:06:19;30.20;;;17.10;;
54460;SDS011;40371;49.414;11.010;2022-12-18T06:08:47;28.60;;;18.20;;
54460;SDS011;40371;49.414;11.010;2022-12-18T06:11:16;31.33;;;17.20;;
54460;SDS011;40371;49.414;11.010;2022-12-18T06:13:43;31.37;;;17.37;;
54460;SDS011;40371;49.414;11.010;2022-12-18T06:16:09;29.17;;;17.13;;
54460;SDS011;40371;49.414;11.010;2022-12-18T06:18:34;33.07;;;18.27;;
54460;SDS011;40371;49.414;11.010;2022-12-18T06:21:00;32.93;;;17.73;;
54460;SDS011;40371;49.414;11.010;2022-12-18T06:23:29;28.40;;;15.50;;
54460;SDS011;40371;49.414;11.010;2022-12-18T06:25:54;33.87;;;17.23;;
54460;SDS011;40371;49.414;11.010;2022-12-18T06:28:20;31.40;;;17.27;;
54460;SDS011;40371;49.414;11.010;2022-12-18T06:30:46;35.77;;;18.37;;
54460;SDS011;40371;49.414;11.010;2022-12-18T06:33:13;31.17;;;17.03;;
54460;SDS011;40371;49.414;11.010;2022-12-18T06:35:40;31.67;;;17.13;;
54460;SDS011;40371;49.414;11.010;2022-12-18T06:38:05;29.73;;;17.47;;
54460;SDS011;40371;49.414;11.010;2022-12-18T06:40:31;31.60;;;17.70;;
54460;SDS011;40371;49.414;11.010;2022-12-18T06:42:57;28.93;;;17.77;;
54460;SDS011;40371;49.414;11.010;2022-12-18T06:45:23;24.93;;;15.20;;
54460;SDS011;40371;49.414;11.010;2022-12-18T06:47:49;28.10;;;14.50;;
54460;SDS011;40371;49.414;11.010;2022-12-18T06:50:15;24.57;;;13.17;;
54460;SDS011;40371;49.414;11.010;2022-12-18T06:52:41;24.07;;;13.87;;
54460;SDS011;40371;49.414;11.010;2022-12-18T06:55:09;27.20;;;12.93;;
54460;SDS011;40371;49.414;11.010;2022-12-18T06:57:35;21.43;;;12.23;;
54460;SDS011;40371;49.414;11.010;2022-12-18T07:00:02;22.27;;;12.03;;
54460;SDS011;40371;49.414;11.010;2022-12-18T07:02:29;21.30;;;13.20;;
54460;SDS011;40371;49.414;11.010;2022-12-18T07:04:55;22.47;;;13.23;;
54460;SDS011;40371;49.414;11.010;2022-12-18T07:07:20;23.47;;;13.50;;
54460;SDS011;40371;49.414;11.010;2022-12-18T07:09:46;25.53;;;13.73;;
54460;SDS011;40371;49.414;11.010;2022-12-18T07:12:11;24.43;;;13.40;;
54460;SDS011;40371;49.414;11.010;2022-12-18T07:14:37;26.63;;;13.77;;
54460;SDS011;40371;49.414;11.010;2022-12-18T07:17:03;21.83;;;13.67;;
54460;SDS011;40371;49.414;11.010;2022-12-18T07:19:29;28.13;;;14.20;;
54460;SDS011;40371;49.414;11.010;2022-12-18T07:21:54;24.40;;;13.57;;
54460;SDS011;40371;49.414;11.010;2022-12-18T07:24:20;23.60;;;14.03;;
54460;SDS011;40371;49.414;11.010;2022-12-18T07:26:46;24.63;;;14.17;;
54460;SDS011;40371;49.414;11.010;2022-12-18T07:29:11;27.63;;;14.40;;
54460;SDS011;40371;49.414;11.010;2022-12-18T07:31:37;26.53;;;13.87;;
54460;SDS011;40371;49.414;11.010;2022-12-18T07:34:02;23.30;;;13.03;;
54460;SDS011;40371;49.414;11.010;2022-12-18T07:36:28;21.60;;;13.17;;
54460;SDS011;40371;49.414;11.010;2022-12-18T07:38:54;27.23;;;14.87;;
54460;SDS011;40371;49.414;11.010;2022-12-18T07:41:20;25.27;;;14.07;;
54460;SDS011;40371;49.414;11.010;2022-12-18T07:43:46;26.10;;;14.93;;
54460;SDS011;40371;49.414;11.010;2022-12-18T07:46:12;27.30;;;13.70;;
54460;SDS011;40371;49.414;11.010;2022-12-18T07:48:42;25.50;;;14.07;;
54460;SDS011;40371;49.414;11.010;2022-12-18T07:51:08;25.57;;;14.07;;
54460;SDS011;40371;49.414;11.010;2022-12-18T07:53:34;22.27;;;12.90;;
54460;SDS011;40371;49.414;11.010;2022-12-18T07:56:08;25.20;;;13.83;;
54460;SDS011;40371;49.414;11.010;2022-12-18T07:58:35;23.83;;;12.80;;
54460;SDS011;40371;49.414;11.010;2022-12-18T08:01:07;21.73;;;12.97;;
54460;SDS011;40371;49.414;11.010;2022-12-18T08:03:35;25.17;;;12.90;;
54460;SDS011;40371;49.414;11.010;2022-12-18T08:06:02;21.87;;;12.73;;
54460;SDS011;40371;49.414;11.010;2022-12-18T08:08:29;22.93;;;13.17;;
54460;SDS011;40371;49.414;11.010;2022-12-18T08:10:55;25.00;;;14.13;;
54460;SDS011;40371;49.414;11.010;2022-12-18T08:13:22;24.83;;;13.70;;
54460;SDS011;40371;49.414;11.010;2022-12-18T08:16:01;22.87;;;12.57;;
54460;SDS011;40371;49.414;11.010;2022-12-18T08:18:29;23.20;;;12.53;;
54460;SDS011;40371;49.414;11.010;2022-12-18T08:20:56;20.33;;;13.07;;
54460;SDS011;40371;49.414;11.010;2022-12-18T08:23:22;23.07;;;12.43;;
54460;SDS011;40371;49.414;11.010;2022-12-18T08:25:47;19.73;;;11.97;;
54460;SDS011;40371;49.414;11.010;2022-12-18T08:28:13;21.47;;;12.33;;
54460;SDS011;40371;49.414;11.010;2022-12-18T08:30:42;19.83;;;12.10;;
54460;SDS011;40371;49.414;11.010;2022-12-18T08:33:07;21.83;;;11.77;;
54460;SDS011;40371;49.414;11.010;2022-12-18T08:35:36;19.07;;;10.77;;
54460;SDS011;40371;49.414;11.010;2022-12-18T08:38:01;22.43;;;13.07;;
54460;SDS011;40371;49.414;11.010;2022-12-18T08:40:28;16.40;;;10.27;;
54460;SDS011;40371;49.414;11.010;2022-12-18T08:42:54;23.27;;;13.23;;
54460;SDS011;40371;49.414;11.010;2022-12-18T08:45:38;19.13;;;11.30;;
54460;SDS011;40371;49.414;11.010;2022-12-18T08:48:03;21.93;;;11.67;;
54460;SDS011;40371;49.414;11.010;2022-12-18T08:50:29;20.73;;;11.47;;
54460;SDS011;40371;49.414;11.010;2022-12-18T08:52:54;18.30;;;11.43;;
54460;SDS011;40371;49.414;11.010;2022-12-18T08:55:20;22.97;;;12.33;;
54460;SDS011;40371;49.414;11.010;2022-12-18T08:57:48;20.63;;;12.27;;
54460;SDS011;40371;49.414;11.010;2022-12-18T09:00:14;20.00;;;12.23;;
54460;SDS011;40371;49.414;11.010;2022-12-18T09:02:40;24.83;;;12.73;;
54460;SDS011;40371;49.414;11.010;2022-12-18T09:05:06;20.27;;;11.03;;
54460;SDS011;40371;49.414;11.010;2022-12-18T09:07:32;18.00;;;10.50;;
54460;SDS011;40371;49.414;11.010;2022-12-18T09:09:57;19.53;;;11.07;;
54460;SDS011;40371;49.414;11.010;2022-12-18T09:12:23;18.30;;;11.07;;
54460;SDS011;40371;49.414;11.010;2022-12-18T09:14:48;21.90;;;12.67;;
54460;SDS011;40371;49.414;11.010;2022-12-18T09:17:14;18.60;;;12.20;;
54460;SDS011;40371;49.414;11.010;2022-12-18T09:19:39;19.40;;;12.03;;
54460;SDS011;40371;49.414;11.010;2022-12-18T09:22:05;20.37;;;12.50;;
54460;SDS011;40371;49.414;11.010;2022-12-18T09:24:31;17.20;;;11.77;;
54460;SDS011;40371;49.414;11.010;2022-12-18T09:26:56;20.43;;;11.23;;
54460;SDS011;40371;49.414;11.010;2022-12-18T09:29:22;22.80;;;13.33;;
54460;SDS011;40371;49.414;11.010;2022-12-18T09:31:48;21.47;;;13.50;;
54460;SDS011;40371;49.414;11.010;2022-12-18T09:34:14;18.77;;;11.97;;
54460;SDS011;40371;49.414;11.010;2022-12-18T09:36:41;18.23;;;12.43;;
54460;SDS011;40371;49.414;11.010;2022-12-18T09:39:07;20.43;;;10.90;;
54460;SDS011;40371;49.414;11.010;2022-12-18T09:41:40;18.40;;;11.13;;
54460;SDS011;40371;49.414;11.010;2022-12-18T09:46:47;22.70;;;11.53;;
54460;SDS011;40371;49.414;11.010;2022-12-18T09:49:39;17.90;;;11.20;;
54460;SDS011;40371;49.414;11.010;2022-12-18T09:52:09;12.40;;;8.80;;
54460;SDS011;40371;49.414;11.010;2022-12-18T09:54:49;18.27;;;11.20;;
54460;SDS011;40371;49.414;11.010;2022-12-18T09:57:20;18.30;;;11.80;;
54460;SDS011;40371;49.414;11.010;2022-12-18T09:59:50;20.97;;;12.77;;
54460;SDS011;40371;49.414;11.010;2022-12-18T10:02:24;16.33;;;10.23;;
54460;SDS011;40371;49.414;11.010;2022-12-18T10:07:59;18.57;;;11.40;;
54460;SDS011;40371;49.414;11.010;2022-12-18T10:10:31;17.60;;;11.50;;
54460;SDS011;40371;49.414;11.010;2022-12-18T10:13:15;18.10;;;11.73;;
54460;SDS011;40371;49.414;11.010;2022-12-18T10:16:03;17.53;;;11.70;;
54460;SDS011;40371;49.414;11.010;2022-12-18T10:21:21;18.20;;;12.07;;
54460;SDS011;40371;49.414;11.010;2022-12-18T10:24:04;16.53;;;11.70;;
54460;SDS011;40371;49.414;11.010;2022-12-18T10:26:38;20.63;;;12.97;;
54460;SDS011;40371;49.414;11.010;2022-12-18T10:29:09;17.33;;;11.53;;
54460;SDS011;40371;49.414;11.010;2022-12-18T10:31:37;18.43;;;11.57;;
54460;SDS011;40371;49.414;11.010;2022-12-18T10:34:02;20.90;;;12.37;;
54460;SDS011;40371;49.414;11.010;2022-12-18T10:36:28;20.10;;;12.67;;
54460;SDS011;40371;49.414;11.010;2022-12-18T10:38:55;19.27;;;11.37;;
54460;SDS011;40371;49.414;11.010;2022-12-18T10:41:40;20.43;;;11.87;;
54460;SDS011;40371;49.414;11.010;2022-12-18T10:46:45;19.50;;;12.13;;
54460;SDS011;40371;49.414;11.010;2022-12-18T10:49:24;18.53;;;11.53;;
54460;SDS011;40371;49.414;11.010;2022-12-18T10:51:52;23.53;;;14.10;;
54460;SDS011;40371;49.414;11.010;2022-12-18T10:54:48;20.53;;;12.00;;
54460;SDS011;40371;49.414;11.010;2022-12-18T10:59:52;22.33;;;13.03;;
54460;SDS011;40371;49.414;11.010;2022-12-18T11:02:41;22.37;;;12.03;;
54460;SDS011;40371;49.414;11.010;2022-12-18T11:07:52;20.10;;;12.83;;
54460;SDS011;40371;49.414;11.010;2022-12-18T11:10:22;18.87;;;12.10;;
54460;SDS011;40371;49.414;11.010;2022-12-18T11:15:50;18.73;;;12.73;;
54460;SDS011;40371;49.414;11.010;2022-12-18T11:18:25;22.03;;;13.03;;
54460;SDS011;40371;49.414;11.010;2022-12-18T11:21:05;19.97;;;13.20;;
54460;SDS011;40371;49.414;11.010;2022-12-18T11:23:33;20.13;;;12.13;;
54460;SDS011;40371;49.414;11.010;2022-12-18T11:26:01;20.93;;;13.83;;
54460;SDS011;40371;49.414;11.010;2022-12-18T11:28:35;20.43;;;12.33;;
54460;SDS011;40371;49.414;11.010;2022-12-18T11:34:09;18.53;;;12.10;;
54460;SDS011;40371;49.414;11.010;2022-12-18T11:36:49;19.37;;;12.23;;
54460;SDS011;40371;49.414;11.010;2022-12-18T11:39:18;17.27;;;11.30;;
54460;SDS011;40371;49.414;11.010;2022-12-18T11:42:11;18.07;;;11.93;;
54460;SDS011;40371;49.414;11.010;2022-12-18T11:44:52;20.10;;;12.37;;
54460;SDS011;40371;49.414;11.010;2022-12-18T11:47:43;19.23;;;12.37;;
54460;SDS011;40371;49.414;11.010;2022-12-18T11:50:19;23.40;;;13.97;;
54460;SDS011;40371;49.414;11.010;2022-12-18T11:52:48;19.10;;;13.03;;
54460;SDS011;40371;49.414;11.010;2022-12-18T11:55:15;18.13;;;11.87;;
54460;SDS011;40371;49.414;11.010;2022-12-18T11:57:51;16.97;;;11.60;;
54460;SDS011;40371;49.414;11.010;2022-12-18T12:00:43;16.80;;;10.13;;
54460;SDS011;40371;49.414;11.010;2022-12-18T12:06:13;16.50;;;11.53;;
54460;SDS011;40371;49.414;11.010;2022-12-18T12:17:20;20.97;;;13.40;;
54460;SDS011;40371;49.414;11.010;2022-12-18T12:22:58;19.07;;;12.57;;
54460;SDS011;40371;49.414;11.010;2022-12-18T12:25:33;21.30;;;12.77;;
54460;SDS011;40371;49.414;11.010;2022-12-18T12:29:00;18.83;;;12.23;;
54460;SDS011;40371;49.414;11.010;2022-12-18T12:31:13;16.63;;;10.70;;
54460;SDS011;40371;49.414;11.010;2022-12-18T12:39:01;18.17;;;11.83;;
54460;SDS011;40371;49.414;11.010;2022-12-18T12:41:31;18.93;;;11.63;;
54460;SDS011;40371;49.414;11.010;2022-12-18T12:44:22;20.70;;;11.77;;
54460;SDS011;40371;49.414;11.010;2022-12-18T12:46:51;22.10;;;12.23;;
54460;SDS011;40371;49.414;11.010;2022-12-18T12:49:21;18.70;;;11.63;;
54460;SDS011;40371;49.414;11.010;2022-12-18T12:51:53;19.07;;;12.47;;
54460;SDS011;40371;49.414;11.010;2022-12-18T12:54:33;16.80;;;11.80;;
54460;SDS011;40371;49.414;11.010;2022-12-18T12:57:02;19.13;;;11.97;;
54460;SDS011;40371;49.414;11.010;2022-12-18T12:59:40;22.27;;;14.13;;
54460;SDS011;40371;49.414;11.010;2022-12-18T13:08:03;15.90;;;10.17;;
54460;SDS011;40371;49.414;11.010;2022-12-18T13:10:35;18.97;;;11.70;;
54460;SDS011;40371;49.414;11.010;2022-12-18T13:13:12;17.87;;;12.10;;
54460;SDS011;40371;49.414;11.010;2022-12-18T13:15:47;23.90;;;12.97;;
54460;SDS011;40371;49.414;11.010;2022-12-18T13:18:27;19.97;;;12.00;;
54460;SDS011;40371;49.414;11.010;2022-12-18T13:25:48;20.70;;;12.47;;
54460;SDS011;40371;49.414;11.010;2022-12-18T13:28:15;16.03;;;11.47;;
54460;SDS011;40371;49.414;11.010;2022-12-18T13:30:46;20.27;;;12.83;;
54460;SDS011;40371;49.414;11.010;2022-12-18T13:36:26;19.93;;;12.33;;
54460;SDS011;40371;49.414;11.010;2022-12-18T13:39:10;19.23;;;12.57;;
54460;SDS011;40371;49.414;11.010;2022-12-18T13:41:39;19.50;;;13.83;;
54460;SDS011;40371;49.414;11.010;2022-12-18T13:44:29;19.67;;;12.73;;
54460;SDS011;40371;49.414;11.010;2022-12-18T13:47:05;19.50;;;11.80;;
54460;SDS011;40371;49.414;11.010;2022-12-18T13:49:53;23.47;;;14.90;;
54460;SDS011;40371;49.414;11.010;2022-12-18T13:52:22;30.33;;;17.93;;
54460;SDS011;40371;49.414;11.010;2022-12-18T13:54:51;21.83;;;14.17;;
54460;SDS011;40371;49.414;11.010;2022-12-18T13:57:25;31.93;;;19.57;;
54460;SDS011;40371;49.414;11.010;2022-12-18T14:02:44;24.60;;;15.77;;
54460;SDS011;40371;49.414;11.010;2022-12-18T14:05:34;22.50;;;13.87;;
54460;SDS011;40371;49.414;11.010;2022-12-18T14:08:03;19.97;;;13.10;;
54460;SDS011;40371;49.414;11.010;2022-12-18T14:10:31;22.67;;;12.30;;
54460;SDS011;40371;49.414;11.010;2022-12-18T14:12:58;23.83;;;14.53;;
54460;SDS011;40371;49.414;11.010;2022-12-18T14:18:25;20.93;;;13.07;;
54460;SDS011;40371;49.414;11.010;2022-12-18T14:20:52;20.63;;;13.70;;
54460;SDS011;40371;49.414;11.010;2022-12-18T14:23:36;25.00;;;14.17;;
54460;SDS011;40371;49.414;11.010;2022-12-18T14:26:02;21.87;;;12.40;;
54460;SDS011;40371;49.414;11.010;2022-12-18T14:28:44;22.90;;;13.20;;
54460;SDS011;40371;49.414;11.010;2022-12-18T14:31:20;22.10;;;13.40;;
54460;SDS011;40371;49.414;11.010;2022-12-18T14:33:50;22.47;;;13.47;;
54460;SDS011;40371;49.414;11.010;2022-12-18T14:36:18;23.37;;;13.77;;
54460;SDS011;40371;49.414;11.010;2022-12-18T14:38:49;23.03;;;14.00;;
54460;SDS011;40371;49.414;11.010;2022-12-18T14:41:22;22.50;;;13.17;;
54460;SDS011;40371;49.414;11.010;2022-12-18T14:43:49;23.17;;;14.30;;
54460;SDS011;40371;49.414;11.010;2022-12-18T14:46:30;22.37;;;13.67;;
54460;SDS011;40371;49.414;11.010;2022-12-18T14:48:58;25.43;;;13.87;;
54460;SDS011;40371;49.414;11.010;2022-12-18T14:51:54;23.07;;;13.60;;
54460;SDS011;40371;49.414;11.010;2022-12-18T14:54:30;22.13;;;13.20;;
54460;SDS011;40371;49.414;11.010;2022-12-18T14:56:59;22.60;;;13.93;;
54460;SDS011;40371;49.414;11.010;2022-12-18T14:59:49;20.20;;;13.20;;
54460;SDS011;40371;49.414;11.010;2022-12-18T15:04:59;24.33;;;13.37;;
54460;SDS011;40371;49.414;11.010;2022-12-18T15:07:26;23.03;;;13.53;;
54460;SDS011;40371;49.414;11.010;2022-12-18T15:18:01;23.40;;;13.37;;
54460;SDS011;40371;49.414;11.010;2022-12-18T15:20:30;24.07;;;13.77;;
54460;SDS011;40371;49.414;11.010;2022-12-18T15:22:57;22.83;;;13.97;;
54460;SDS011;40371;49.414;11.010;2022-12-18T15:25:31;22.07;;;12.63;;
54460;SDS011;40371;49.414;11.010;2022-12-18T15:28:01;23.93;;;13.57;;
54460;SDS011;40371;49.414;11.010;2022-12-18T15:30:27;24.27;;;13.80;;
54460;SDS011;40371;49.414;11.010;2022-12-18T15:33:16;23.87;;;14.17;;
54460;SDS011;40371;49.414;11.010;2022-12-18T15:35:51;24.23;;;12.57;;
54460;SDS011;40371;49.414;11.010;2022-12-18T15:38:24;24.10;;;13.90;;
54460;SDS011;40371;49.414;11.010;2022-12-18T15:40:50;25.57;;;13.60;;
54460;SDS011;40371;49.414;11.010;2022-12-18T15:43:17;23.40;;;14.30;;
54460;SDS011;40371;49.414;11.010;2022-12-18T15:46:05;21.27;;;13.33;;
54460;SDS011;40371;49.414;11.010;2022-12-18T15:48:34;23.27;;;13.60;;
54460;SDS011;40371;49.414;11.010;2022-12-18T15:51:04;25.73;;;14.23;;
54460;SDS011;40371;49.414;11.010;2022-12-18T15:53:36;24.57;;;14.27;;
54460;SDS011;40371;49.414;11.010;2022-12-18T15:56:04;21.20;;;14.13;;
54460;SDS011;40371;49.414;11.010;2022-12-18T15:58:52;24.87;;;15.13;;
54460;SDS011;40371;49.414;11.010;2022-12-18T16:01:17;26.93;;;15.23;;
54460;SDS011;40371;49.414;11.010;2022-12-18T16:03:44;22.37;;;14.07;;
54460;SDS011;40371;49.414;11.010;2022-12-18T16:06:09;22.83;;;14.60;;
54460;SDS011;40371;49.414;11.010;2022-12-18T16:08:35;21.07;;;13.77;;
54460;SDS011;40371;49.414;11.010;2022-12-18T16:11:01;27.00;;;15.67;;